createdAt,value
2022-10-02T00:00:08.440Z,17.62
2022-10-02T00:03:38.551Z,17.52
2022-10-02T00:06:24.252Z,17.47
2022-10-02T00:09:02.955Z,17.40
2022-10-02T00:11:54.527Z,17.33
2022-10-02T00:14:24.521Z,17.32
2022-10-02T00:16:56.519Z,17.35
2022-10-02T00:19:25.014Z,17.34
2022-10-02T00:22:15.648Z,17.37
2022-10-02T00:24:51.789Z,17.39
2022-10-02T00:27:57.137Z,17.42
2022-10-02T00:30:24.461Z,17.43
2022-10-02T00:33:21.287Z,17.44
2022-10-02T00:36:16.212Z,17.42
2022-10-02T00:39:51.327Z,17.42
2022-10-02T00:42:40.299Z,17.38
2022-10-02T00:45:44.455Z,17.31
2022-10-02T00:48:20.694Z,17.27
2022-10-02T00:51:31.731Z,17.26
2022-10-02T00:54:52.824Z,17.22
2022-10-02T00:57:57.898Z,17.17
2022-10-02T01:00:25.911Z,17.22
2022-10-02T01:03:23.491Z,17.25
2022-10-02T01:05:50.869Z,17.30
2022-10-02T01:08:19.046Z,17.34
2022-10-02T01:10:47.134Z,17.37
2022-10-02T01:13:14.385Z,17.37
2022-10-02T01:15:52.659Z,17.39
2022-10-02T01:18:20.177Z,17.36
2022-10-02T01:20:52.206Z,17.34
2022-10-02T01:23:58.916Z,17.20
2022-10-02T01:26:26.108Z,17.07
2022-10-02T01:28:53.489Z,17.01
2022-10-02T01:31:21.592Z,17.00
2022-10-02T01:33:49.419Z,16.94
2022-10-02T01:36:17.502Z,16.95
2022-10-02T01:38:46.997Z,16.92
2022-10-02T01:41:14.125Z,16.92
2022-10-02T01:43:55.256Z,16.94
2022-10-02T01:46:55.840Z,16.98
2022-10-02T01:50:12.001Z,16.93
2022-10-02T01:53:23.638Z,16.93
2022-10-02T01:56:00.748Z,16.91
2022-10-02T01:59:11.160Z,16.87
2022-10-02T02:01:51.843Z,16.88
2022-10-02T02:04:29.531Z,16.88
2022-10-02T02:07:25.564Z,16.85
2022-10-02T02:10:10.202Z,16.88
2022-10-02T02:12:51.270Z,16.88
2022-10-02T02:15:56.614Z,16.90
2022-10-02T02:18:57.439Z,16.89
2022-10-02T02:21:37.421Z,16.88
2022-10-02T02:24:11.721Z,16.91
2022-10-02T02:26:43.126Z,16.96
2022-10-02T02:29:12.416Z,16.99
2022-10-02T02:31:55.826Z,17.02
2022-10-02T02:34:42.375Z,17.01
2022-10-02T02:37:18.512Z,17.00
2022-10-02T02:39:52.272Z,16.99
2022-10-02T02:42:26.033Z,16.98
2022-10-02T02:45:05.937Z,16.96
2022-10-02T02:47:46.908Z,16.93
2022-10-02T02:50:34.813Z,16.89
2022-10-02T02:53:31.606Z,16.81
2022-10-02T02:56:02.708Z,16.75
2022-10-02T02:58:40.626Z,16.73
2022-10-02T03:01:08.101Z,16.68
2022-10-02T03:03:35.459Z,16.60
2022-10-02T03:06:21.297Z,16.56
2022-10-02T03:08:52.129Z,16.46
2022-10-02T03:11:56.663Z,16.45
2022-10-02T03:14:51.967Z,16.43
2022-10-02T03:17:38.240Z,16.39
2022-10-02T03:20:36.071Z,16.44
2022-10-02T03:23:11.068Z,16.50
2022-10-02T03:25:53.580Z,16.55
2022-10-02T03:28:55.158Z,16.56
2022-10-02T03:31:28.198Z,16.58
2022-10-02T03:33:58.724Z,16.59
2022-10-02T03:36:26.561Z,16.58
2022-10-02T03:39:20.244Z,16.65
2022-10-02T03:41:46.159Z,16.70
2022-10-02T03:44:13.262Z,16.75
2022-10-02T03:46:40.670Z,16.80
2022-10-02T03:49:08.190Z,16.82
2022-10-02T03:51:35.376Z,16.85
2022-10-02T03:54:03.298Z,16.90
2022-10-02T03:56:49.093Z,16.92
2022-10-02T03:59:50.461Z,16.96
2022-10-02T04:02:46.851Z,16.95
2022-10-02T04:05:35.596Z,16.90
2022-10-02T04:08:19.086Z,16.89
2022-10-02T04:11:14.102Z,16.82
2022-10-02T04:13:53.034Z,16.76
2022-10-02T04:16:48.090Z,16.60
2022-10-02T04:19:45.893Z,16.47
2022-10-02T04:22:34.116Z,16.38
2022-10-02T04:25:20.808Z,16.24
2022-10-02T04:28:07.675Z,16.25
2022-10-02T04:30:35.172Z,16.25
2022-10-02T04:33:17.839Z,16.28
2022-10-02T04:35:54.271Z,16.30
2022-10-02T04:38:39.139Z,16.31
2022-10-02T04:41:46.403Z,16.35
2022-10-02T04:44:47.819Z,16.31
2022-10-02T04:48:06.017Z,16.27
2022-10-02T04:50:59.906Z,16.22
2022-10-02T04:54:08.850Z,16.14
2022-10-02T04:56:55.515Z,16.02
2022-10-02T04:59:55.609Z,16.02
2022-10-02T05:03:00.662Z,15.92
2022-10-02T05:05:44.660Z,15.84
2022-10-02T05:08:30.011Z,15.81
2022-10-02T05:11:32.029Z,15.80
2022-10-02T05:14:22.461Z,15.76
2022-10-02T05:17:19.018Z,15.70
2022-10-02T05:20:03.265Z,15.71
2022-10-02T05:23:18.408Z,15.70
2022-10-02T05:26:05.470Z,15.62
2022-10-02T05:29:21.460Z,15.56
2022-10-02T05:36:18.046Z,15.36
2022-10-02T05:39:02.627Z,15.23
2022-10-02T05:42:06.135Z,15.25
2022-10-02T05:44:44.623Z,15.21
2022-10-02T05:47:27.360Z,15.24
2022-10-02T05:50:14.365Z,15.24
2022-10-02T05:53:26.892Z,15.23
2022-10-02T05:56:06.000Z,15.20
2022-10-02T05:58:44.657Z,15.23
2022-10-02T06:01:30.635Z,15.20
2022-10-02T06:04:36.017Z,15.21
2022-10-02T06:07:18.745Z,15.16
2022-10-02T06:10:37.788Z,15.02
2022-10-02T06:13:18.097Z,15.03
2022-10-02T06:16:22.490Z,15.03
2022-10-02T06:19:00.554Z,14.94
2022-10-02T06:21:38.061Z,14.84
2022-10-02T06:24:16.338Z,14.82
2022-10-02T06:27:32.983Z,14.80
2022-10-02T06:30:12.245Z,14.82
2022-10-02T06:32:48.287Z,14.75
2022-10-02T06:35:22.364Z,14.77
2022-10-02T06:38:02.071Z,14.72
2022-10-02T06:40:47.673Z,14.72
2022-10-02T06:44:07.881Z,14.66
2022-10-02T06:46:53.179Z,14.68
2022-10-02T06:49:57.392Z,14.66
2022-10-02T06:53:12.343Z,14.67
2022-10-02T06:56:05.957Z,14.67
2022-10-02T06:58:57.366Z,14.68
2022-10-02T07:02:38.436Z,14.65
2022-10-02T07:05:23.894Z,14.70
2022-10-02T07:08:27.130Z,14.73
2022-10-02T07:11:18.855Z,14.76
2022-10-02T07:14:10.675Z,14.78
2022-10-02T07:17:05.381Z,14.70
2022-10-02T07:20:15.711Z,14.73
2022-10-02T07:23:16.331Z,14.65
2022-10-02T07:26:02.371Z,14.63
2022-10-02T07:29:10.348Z,14.64
2022-10-02T07:32:17.861Z,14.62
2022-10-02T07:35:00.585Z,14.65
2022-10-02T07:38:07.801Z,14.66
2022-10-02T07:41:29.852Z,14.65
2022-10-02T07:44:36.465Z,14.63
2022-10-02T07:47:33.910Z,14.69
2022-10-02T07:50:32.541Z,14.68
2022-10-02T07:53:43.179Z,14.72
2022-10-02T07:56:19.487Z,14.78
2022-10-02T07:59:03.640Z,14.77
2022-10-02T08:01:36.753Z,14.76
2022-10-02T08:04:14.151Z,14.78
2022-10-02T08:06:44.583Z,14.78
2022-10-02T08:09:32.553Z,14.79
2022-10-02T08:12:25.969Z,14.80
2022-10-02T08:14:55.395Z,14.81
2022-10-02T08:17:49.494Z,14.82
2022-10-02T08:20:44.031Z,14.85
2022-10-02T08:23:37.233Z,15.01
2022-10-02T08:26:11.328Z,15.19
2022-10-02T08:29:05.683Z,15.35
2022-10-02T08:31:33.366Z,15.45
2022-10-02T08:34:17.780Z,15.45
2022-10-02T08:36:54.272Z,15.47
2022-10-02T08:39:55.625Z,15.53
2022-10-02T08:43:10.735Z,15.56
2022-10-02T08:46:41.752Z,15.60
2022-10-02T08:49:47.305Z,15.74
2022-10-02T08:52:29.626Z,15.75
2022-10-02T08:55:23.034Z,15.81
2022-10-02T08:58:02.997Z,15.93
2022-10-02T09:01:06.715Z,16.12
2022-10-02T09:04:13.896Z,16.20
2022-10-02T09:07:31.896Z,16.28
2022-10-02T09:10:31.931Z,16.30
2022-10-02T09:13:32.973Z,16.35
2022-10-02T09:16:11.289Z,16.36
2022-10-02T09:19:24.406Z,16.34
2022-10-02T09:21:59.046Z,16.32
2022-10-02T09:25:22.180Z,16.28
2022-10-02T09:28:21.147Z,16.35
2022-10-02T09:31:06.691Z,16.32
2022-10-02T09:33:58.042Z,16.35
2022-10-02T09:37:39.975Z,16.41
2022-10-02T09:40:13.303Z,16.41
2022-10-02T09:43:00.988Z,16.42
2022-10-02T09:46:37.434Z,16.42
2022-10-02T09:49:31.626Z,16.55
2022-10-02T09:52:29.849Z,16.71
2022-10-02T09:55:00.046Z,16.84
2022-10-02T09:57:44.390Z,16.92
2022-10-02T10:00:56.554Z,16.93
2022-10-02T10:03:48.041Z,16.97
2022-10-02T10:06:40.216Z,17.01
2022-10-02T10:09:51.329Z,17.07
2022-10-02T10:12:42.808Z,17.19
2022-10-02T10:15:53.495Z,17.25
2022-10-02T10:19:04.107Z,17.38
2022-10-02T10:21:49.194Z,17.46
2022-10-02T10:25:35.724Z,17.57
2022-10-02T10:28:45.068Z,17.65
2022-10-02T10:31:37.176Z,17.69
2022-10-02T10:35:15.707Z,17.78
2022-10-02T10:38:32.608Z,17.98
2022-10-02T10:41:48.167Z,18.15
2022-10-02T10:44:31.297Z,18.22
2022-10-02T10:47:26.217Z,18.17
2022-10-02T10:50:35.444Z,18.00
2022-10-02T10:53:30.429Z,17.76
2022-10-02T10:56:44.380Z,17.62
2022-10-02T10:59:58.587Z,17.59
2022-10-02T11:03:08.878Z,17.55
2022-10-02T11:06:13.137Z,17.48
2022-10-02T11:08:59.293Z,17.41
2022-10-02T11:12:09.888Z,17.46
2022-10-02T11:15:09.632Z,17.65
2022-10-02T11:18:12.363Z,17.68
2022-10-02T11:21:13.303Z,17.70
2022-10-02T11:23:58.623Z,17.71
2022-10-02T11:26:52.863Z,17.75
2022-10-02T11:29:52.573Z,17.88
2022-10-02T11:33:14.236Z,18.07
2022-10-02T11:35:53.363Z,18.36
2022-10-02T11:38:48.287Z,18.39
2022-10-02T11:41:25.064Z,18.19
2022-10-02T11:44:12.527Z,17.99
2022-10-02T11:46:51.735Z,17.97
2022-10-02T11:50:01.567Z,18.04
2022-10-02T11:53:05.395Z,18.04
2022-10-02T11:56:13.806Z,17.96
2022-10-02T11:58:55.945Z,17.97
2022-10-02T12:01:54.470Z,18.04
2022-10-02T12:04:22.676Z,18.02
2022-10-02T12:07:00.322Z,17.89
2022-10-02T12:09:55.223Z,17.84
2022-10-02T12:12:57.962Z,17.79
2022-10-02T12:15:50.063Z,17.76
2022-10-02T12:18:53.125Z,17.81
2022-10-02T12:21:43.897Z,17.94
2022-10-02T12:25:01.864Z,18.11
2022-10-02T12:28:04.434Z,18.23
2022-10-02T12:31:50.576Z,18.12
2022-10-02T12:35:00.343Z,17.94
2022-10-02T12:37:29.933Z,17.95
2022-10-02T12:40:46.463Z,17.96
2022-10-02T12:43:58.302Z,18.01
2022-10-02T12:47:20.858Z,18.05
2022-10-02T12:50:11.964Z,18.12
2022-10-02T12:53:15.276Z,18.13
2022-10-02T12:55:55.164Z,18.09
2022-10-02T12:58:59.331Z,18.04
2022-10-02T13:01:53.555Z,18.06
2022-10-02T13:05:11.184Z,18.09
2022-10-02T13:08:04.909Z,18.10
2022-10-02T13:11:13.644Z,17.96
2022-10-02T13:14:27.774Z,17.82
2022-10-02T13:17:31.570Z,17.71
2022-10-02T13:20:37.399Z,17.70
2022-10-02T13:23:33.905Z,17.86
2022-10-02T13:26:33.871Z,18.02
2022-10-02T13:29:18.745Z,18.08
2022-10-02T13:32:07.583Z,18.12
2022-10-02T13:34:50.854Z,18.11
2022-10-02T13:37:44.905Z,18.10
2022-10-02T13:40:44.019Z,18.13
2022-10-02T13:43:49.565Z,18.10
2022-10-02T13:46:36.948Z,18.07
2022-10-02T13:49:23.134Z,18.06
2022-10-02T13:52:33.530Z,18.09
2022-10-02T13:55:20.165Z,18.02
2022-10-02T13:58:52.668Z,17.83
2022-10-02T14:02:06.888Z,17.63
2022-10-02T14:04:51.355Z,17.46
2022-10-02T14:08:05.642Z,17.33
2022-10-02T14:11:36.999Z,17.02
2022-10-02T14:14:30.415Z,16.04
2022-10-02T14:17:13.125Z,15.19
2022-10-02T14:20:39.559Z,14.62
2022-10-02T14:23:43.167Z,13.99
2022-10-02T14:26:23.179Z,13.58
2022-10-02T14:29:35.234Z,13.41
2022-10-02T14:32:42.846Z,13.42
2022-10-02T14:35:46.850Z,13.54
2022-10-02T14:38:36.684Z,13.78
2022-10-02T14:42:01.073Z,13.89
2022-10-02T14:45:19.697Z,13.91
2022-10-02T14:48:30.501Z,13.91
2022-10-02T14:51:52.508Z,13.96
2022-10-02T14:54:58.605Z,14.02
2022-10-02T14:58:02.750Z,14.05
2022-10-02T15:01:18.850Z,14.07
2022-10-02T15:04:24.567Z,14.10
2022-10-02T15:07:30.591Z,14.11
2022-10-02T15:10:27.087Z,14.11
2022-10-02T15:13:19.113Z,14.06
2022-10-02T15:16:38.302Z,14.01
2022-10-02T15:19:33.455Z,13.83
2022-10-02T15:22:28.260Z,13.66
2022-10-02T15:25:06.671Z,13.57
2022-10-02T15:28:36.811Z,13.53
2022-10-02T15:31:11.548Z,13.53
2022-10-02T15:34:04.762Z,13.60
2022-10-02T15:36:54.184Z,13.59
2022-10-02T15:39:43.870Z,13.62
2022-10-02T15:42:23.747Z,13.64
2022-10-02T15:45:16.507Z,13.64
2022-10-02T15:48:05.106Z,13.69
2022-10-02T15:51:06.990Z,13.71
2022-10-02T15:54:03.775Z,13.71
2022-10-02T15:56:49.090Z,13.69
2022-10-02T15:59:50.677Z,13.74
2022-10-02T16:02:32.161Z,13.79
2022-10-02T16:05:42.324Z,13.82
2022-10-02T16:08:42.081Z,13.87
2022-10-02T16:11:42.304Z,13.82
2022-10-02T16:14:56.097Z,13.86
2022-10-02T16:17:51.952Z,13.82
2022-10-02T16:20:49.438Z,13.83
2022-10-02T16:23:57.595Z,13.81
2022-10-02T16:30:11.971Z,13.71
2022-10-02T16:33:21.535Z,13.67
2022-10-02T16:36:05.168Z,13.61
2022-10-02T16:39:22.017Z,13.57
2022-10-02T16:42:25.470Z,13.57
2022-10-02T16:45:28.559Z,13.53
2022-10-02T16:48:19.979Z,13.50
2022-10-02T16:51:22.537Z,13.49
2022-10-02T16:54:12.445Z,13.44
2022-10-02T16:56:56.412Z,13.41
2022-10-02T16:59:40.195Z,13.39
2022-10-02T17:02:34.186Z,13.38
2022-10-02T17:05:36.581Z,13.35
2022-10-02T17:08:49.674Z,13.39
2022-10-02T17:11:34.663Z,13.38
2022-10-02T17:14:31.120Z,13.35
2022-10-02T17:17:10.659Z,13.35
2022-10-02T17:19:55.985Z,13.33
2022-10-02T17:22:45.041Z,13.32
2022-10-02T17:25:30.362Z,13.29
2022-10-02T17:28:22.044Z,13.28
2022-10-02T17:31:28.224Z,13.26
2022-10-02T17:34:21.288Z,13.25
2022-10-02T17:36:48.717Z,13.15
2022-10-02T17:40:01.473Z,13.23
2022-10-02T17:43:04.007Z,13.27
2022-10-02T17:46:03.264Z,13.25
2022-10-02T17:49:03.811Z,13.20
2022-10-02T17:52:02.801Z,13.18
2022-10-02T17:55:31.810Z,13.19
2022-10-02T17:58:18.999Z,13.18
2022-10-02T18:01:40.317Z,13.20
2022-10-02T18:04:36.579Z,13.16
2022-10-02T18:07:56.528Z,13.13
2022-10-02T18:11:10.154Z,13.09
2022-10-02T18:14:13.601Z,13.08
2022-10-02T18:17:15.488Z,13.06
2022-10-02T18:20:10.387Z,13.06
2022-10-02T18:23:09.494Z,13.06
2022-10-02T18:26:15.538Z,13.08
2022-10-02T18:29:04.428Z,13.17
2022-10-02T18:32:13.268Z,13.22
2022-10-02T18:35:10.130Z,13.23
2022-10-02T18:38:29.442Z,13.28
2022-10-02T18:41:35.934Z,13.31
2022-10-02T18:44:53.787Z,13.38
2022-10-02T18:47:49.466Z,13.40
2022-10-02T18:50:51.965Z,13.42
2022-10-02T18:53:29.771Z,13.38
2022-10-02T18:56:24.673Z,13.33
2022-10-02T19:00:03.369Z,13.30
2022-10-02T19:02:54.826Z,13.27
2022-10-02T19:05:41.311Z,13.25
2022-10-02T19:08:57.990Z,13.24
2022-10-02T19:11:32.512Z,13.22
2022-10-02T19:14:13.133Z,13.24
2022-10-02T19:17:12.854Z,13.24
2022-10-02T19:19:44.605Z,13.22
2022-10-02T19:22:22.416Z,13.19
2022-10-02T19:25:06.756Z,13.15
2022-10-02T19:27:37.023Z,13.10
2022-10-02T19:30:20.996Z,13.09
2022-10-02T19:32:50.831Z,13.09
2022-10-02T19:35:34.417Z,13.07
2022-10-02T19:38:36.274Z,13.04
2022-10-02T19:41:12.830Z,12.98
2022-10-02T19:44:06.693Z,12.92
2022-10-02T19:46:39.190Z,12.87
2022-10-02T19:49:38.059Z,12.84
2022-10-02T19:52:29.834Z,12.77
2022-10-02T19:55:02.855Z,12.69
2022-10-02T19:57:37.783Z,12.65
2022-10-02T20:00:14.956Z,12.63
2022-10-02T20:02:48.396Z,12.63
2022-10-02T20:05:31.455Z,12.60
2022-10-02T20:08:07.044Z,12.58
2022-10-02T20:10:50.708Z,12.52
2022-10-02T20:13:44.316Z,12.45
2022-10-02T20:16:41.239Z,12.42
2022-10-02T20:19:23.805Z,12.36
2022-10-02T20:21:57.609Z,12.30
2022-10-02T20:24:35.152Z,12.23
2022-10-02T20:27:34.314Z,12.13
2022-10-02T20:30:21.482Z,12.05
2022-10-02T20:33:36.648Z,11.97
2022-10-02T20:36:35.748Z,11.88
2022-10-02T20:39:15.835Z,11.80
2022-10-02T20:42:20.751Z,11.75
2022-10-02T20:44:48.461Z,11.69
2022-10-02T20:47:43.515Z,11.57
2022-10-02T20:50:32.725Z,11.44
2022-10-02T20:53:23.562Z,11.30
2022-10-02T20:55:59.323Z,11.26
2022-10-02T20:59:15.495Z,11.26
2022-10-02T21:02:10.248Z,11.23
2022-10-02T21:05:03.247Z,11.19
2022-10-02T21:07:40.333Z,11.18
2022-10-02T21:10:38.895Z,11.15
2022-10-02T21:13:38.944Z,11.09
2022-10-02T21:17:08.402Z,11.07
2022-10-02T21:20:22.742Z,11.04
2022-10-02T21:23:02.007Z,10.99
2022-10-02T21:25:49.601Z,11.01
2022-10-02T21:29:17.945Z,10.99
2022-10-02T21:32:12.259Z,10.94
2022-10-02T21:35:31.420Z,10.93
2022-10-02T21:38:31.860Z,10.96
2022-10-02T21:41:36.120Z,10.93
2022-10-02T21:44:35.947Z,10.90
2022-10-02T21:47:27.985Z,10.86
2022-10-02T21:50:11.227Z,10.83
2022-10-02T21:53:31.192Z,10.77
2022-10-02T21:56:42.618Z,10.69
2022-10-02T21:59:57.492Z,10.59
2022-10-02T22:03:03.873Z,10.67
2022-10-02T22:05:33.837Z,10.60
2022-10-02T22:08:20.738Z,10.60
2022-10-02T22:11:11.779Z,10.50
2022-10-02T22:13:43.245Z,10.47
2022-10-02T22:16:41.213Z,10.51
2022-10-02T22:19:19.667Z,10.44
2022-10-02T22:22:39.814Z,10.46
2022-10-02T22:25:27.614Z,10.49
2022-10-02T22:28:52.514Z,10.41
2022-10-02T22:31:41.462Z,10.45
2022-10-02T22:34:27.066Z,10.48
2022-10-02T22:37:06.217Z,10.53
2022-10-02T22:39:45.708Z,10.50
2022-10-02T22:42:18.720Z,10.46
2022-10-02T22:44:50.837Z,10.49
2022-10-02T22:47:18.017Z,10.49
2022-10-02T22:53:49.677Z,10.57
2022-10-02T22:56:36.670Z,10.62
2022-10-02T22:59:17.082Z,10.62
2022-10-02T23:02:20.229Z,10.54
2022-10-02T23:05:09.765Z,10.62
2022-10-02T23:07:52.538Z,10.64
2022-10-02T23:10:36.627Z,10.74
2022-10-02T23:13:32.482Z,10.68
2022-10-02T23:16:49.416Z,10.61
2022-10-02T23:20:02.694Z,10.57
2022-10-02T23:22:53.443Z,10.51
2022-10-02T23:25:21.632Z,10.47
2022-10-02T23:28:07.914Z,10.48
2022-10-02T23:31:33.030Z,10.44
2022-10-02T23:34:41.940Z,10.47
2022-10-02T23:37:25.151Z,10.52
2022-10-02T23:43:08.626Z,10.51
2022-10-02T23:49:13.582Z,10.72
2022-10-02T23:52:11.065Z,10.76
2022-10-02T23:55:14.119Z,10.84
